Time;durP1;ratioP1;P1;durP2;ratioP2;P2;SDS_P1;SDS_P2;PMS_P1;PMS_P2;Temp;Humidity;BMP_temperature;BMP_pressure;BME280_temperature;BME280_humidity;BME280_pressure;Samples;Min_cycle;Max_cycle;Signal;HPM_P1;HPM_P2
2023/08/11 00:00:48;;;;;;;4.70;2.08;;;;;;;-146.25;90.53;52124.91;2096454;28;33211;-68
2023/08/11 00:01:49;;;;;;;5.78;2.22;;;;;;;-146.25;90.28;52092.44;2096204;28;37656;-68
2023/08/11 00:02:51;;;;;;;6.03;2.15;;;;;;;-146.25;90.49;52151.25;2096103;28;35126;-68
2023/08/11 00:03:53;;;;;;;5.75;2.20;;;;;;;-146.25;90.24;52128.94;2096244;28;35231;-68
2023/08/11 00:04:55;;;;;;;6.07;2.20;;;;;;;-146.25;91.04;52112.72;2096751;28;31697;-68
2023/08/11 00:05:56;;;;;;;6.43;2.42;;;;;;;-146.25;90.91;52128.94;2096970;28;35549;-68
2023/08/11 00:06:58;;;;;;;4.75;2.47;;;;;;;-146.25;90.90;52102.59;2097330;28;20092;-68
2023/08/11 00:08:00;;;;;;;5.22;2.55;;;;;;;-146.25;90.97;52128.94;2096400;28;37217;-68
2023/08/11 00:09:08;;;;;;;4.78;2.40;;;;;;;-146.25;90.62;52104.63;2096870;28;20683;-68
2023/08/11 00:10:12;;;;;;;6.07;2.25;;;;;;;-146.25;90.41;52094.47;2096370;28;34013;-68
2023/08/11 00:11:14;;;;;;;6.15;2.05;;;;;;;-146.25;90.36;52133.00;2096332;28;34136;-68
2023/08/11 00:12:15;;;;;;;6.75;2.28;;;;;;;-146.25;90.39;52106.66;2096682;28;36888;-68
2023/08/11 00:13:17;;;;;;;6.40;2.30;;;;;;;-146.25;90.46;52118.81;2096498;28;38111;-68
2023/08/11 00:14:19;;;;;;;6.32;2.63;;;;;;;-146.25;90.14;52102.59;2096117;28;33355;-68
2023/08/11 00:15:24;;;;;;;6.28;2.72;;;;;;;-146.25;90.92;52074.22;2096468;28;34760;-68
2023/08/11 00:16:25;;;;;;;4.93;2.10;;;;;;;-146.25;90.47;52102.59;2095748;28;33083;-68
2023/08/11 00:17:27;;;;;;;7.30;2.55;;;;;;;-146.25;90.46;52112.72;2096463;28;39539;-68
2023/08/11 00:18:29;;;;;;;3.50;2.33;;;;;;;-146.25;90.30;52090.44;2096366;28;31994;-68
2023/08/11 00:19:31;;;;;;;7.90;3.03;;;;;;;-146.25;90.69;52064.06;2096027;28;39714;-68
2023/08/11 00:20:33;;;;;;;5.57;2.53;;;;;;;-146.25;90.65;52096.50;2096573;28;34595;-68
2023/08/11 00:21:35;;;;;;;6.10;2.22;;;;;;;-146.25;90.34;52149.22;2096662;28;34805;-68
2023/08/11 00:22:39;;;;;;;4.28;1.95;;;;;;;-146.25;90.16;52126.91;2096214;28;36790;-67
2023/08/11 00:23:43;;;;;;;3.60;2.88;;;;;;;-146.25;89.94;52098.53;2104758;28;20153;-68
2023/08/11 00:24:45;;;;;;;7.68;2.70;;;;;;;-146.25;89.81;52104.63;2102605;28;36068;-68
2023/08/11 00:25:48;;;;;;;6.28;1.92;;;;;;;-146.25;89.71;52084.34;2096562;28;37399;-68
2023/08/11 00:26:50;;;;;;;6.40;1.92;;;;;;;-146.25;89.92;52100.56;2096596;28;20164;-68
2023/08/11 00:27:52;;;;;;;4.43;2.00;;;;;;;-146.25;90.11;52112.72;2096051;28;34206;-68
2023/08/11 00:28:55;;;;;;;5.25;2.30;;;;;;;-146.25;90.64;52096.50;2096401;28;20118;-68
2023/08/11 00:30:00;;;;;;;5.32;2.78;;;;;;;-146.25;91.00;52133.00;2096353;28;24511;-68
2023/08/11 00:31:06;;;;;;;8.27;2.85;;;;;;;-146.25;91.00;52096.50;2097034;28;20489;-69
2023/08/11 00:32:07;;;;;;;6.38;2.50;;;;;;;-146.25;90.43;52137.06;2095816;28;33746;-68
2023/08/11 00:33:11;;;;;;;5.00;2.47;;;;;;;-146.25;90.18;52112.72;2095399;28;31455;-68
2023/08/11 00:34:13;;;;;;;3.78;2.30;;;;;;;-146.25;90.23;52137.06;2095983;28;27043;-68
2023/08/11 00:35:15;;;;;;;5.70;2.38;;;;;;;-146.25;90.07;52104.63;2095958;28;35318;-68
2023/08/11 00:36:17;;;;;;;9.75;2.78;;;;;;;-146.25;90.45;52088.41;2096565;28;37136;-68
2023/08/11 00:37:19;;;;;;;9.85;2.60;;;;;;;-146.25;90.75;52116.78;2104284;28;20197;-68
2023/08/11 00:38:23;;;;;;;7.30;2.35;;;;;;;-146.25;91.31;52116.78;2103709;28;31810;-68
2023/08/11 00:39:25;;;;;;;4.97;3.15;;;;;;;-146.25;90.79;52120.84;2095194;28;33278;-68
2023/08/11 00:40:28;;;;;;;5.55;2.47;;;;;;;-146.25;91.06;52139.09;2096183;28;20044;-68
2023/08/11 00:41:30;;;;;;;7.93;2.80;;;;;;;-146.25;90.94;52098.53;2095660;28;26338;-68
2023/08/11 00:42:32;;;;;;;9.90;3.08;;;;;;;-146.25;91.68;52102.59;2096844;28;24369;-68
2023/08/11 00:43:33;;;;;;;7.53;2.75;;;;;;;-146.25;90.98;52072.19;2096769;28;20033;-68
2023/08/11 00:44:35;;;;;;;3.17;2.42;;;;;;;-146.25;91.15;52102.59;2096798;28;22730;-68
2023/08/11 00:45:44;;;;;;;6.45;2.90;;;;;;;-146.25;90.88;52114.75;2095911;28;20029;-68
2023/08/11 00:46:47;;;;;;;6.15;3.05;;;;;;;-146.25;90.94;52108.66;2095847;28;30025;-68
2023/08/11 00:47:49;;;;;;;4.70;3.00;;;;;;;-146.25;90.89;52068.13;2095601;28;27728;-68
2023/08/11 00:48:52;;;;;;;4.68;2.78;;;;;;;-146.25;90.58;52082.31;2088129;28;20083;-68
2023/08/11 00:49:53;;;;;;;4.43;3.30;;;;;;;-146.25;90.70;52122.88;2095523;28;27966;-68
2023/08/11 00:50:57;;;;;;;8.32;3.30;;;;;;;-146.25;90.52;52108.66;2096628;28;36427;-68
2023/08/11 00:52:01;;;;;;;4.38;2.83;;;;;;;-146.25;90.61;52102.59;2096855;28;20822;-68
2023/08/11 00:53:03;;;;;;;5.70;3.05;;;;;;;-146.25;90.25;52104.63;2095815;28;24249;-67
2023/08/11 00:54:07;;;;;;;5.00;2.72;;;;;;;-146.25;90.52;52092.44;2095161;28;29369;-68
2023/08/11 00:55:09;;;;;;;5.15;2.75;;;;;;;-146.25;90.50;52092.44;2096327;28;20080;-68
2023/08/11 00:56:13;;;;;;;7.10;2.60;;;;;;;-146.25;90.55;52143.13;2096166;28;21051;-68
2023/08/11 00:57:15;;;;;;;8.20;3.20;;;;;;;-146.25;90.69;52139.09;2104453;28;20961;-68
2023/08/11 00:58:19;;;;;;;7.80;3.15;;;;;;;-146.25;90.58;52124.91;2103885;28;35202;-68
2023/08/11 00:59:21;;;;;;;4.82;2.30;;;;;;;-146.25;90.25;52106.66;2095903;28;20061;-68
2023/08/11 01:00:24;;;;;;;5.72;2.53;;;;;;;-146.25;90.97;52090.44;2095318;28;33313;-68
2023/08/11 01:01:26;;;;;;;4.38;3.05;;;;;;;-146.25;90.39;52149.22;2096606;28;20033;-68
2023/08/11 01:02:28;;;;;;;5.15;2.55;;;;;;;-146.25;90.23;52100.56;2103720;28;29026;-68
2023/08/11 01:03:31;;;;;;;4.00;2.63;;;;;;;-146.25;90.01;52147.19;2103803;28;21812;-68
2023/08/11 01:04:33;;;;;;;3.92;2.63;;;;;;;-146.25;90.31;52104.63;2095058;28;25390;-68
2023/08/11 01:05:43;;;;;;;6.60;2.67;;;;;;;-146.25;89.82;52092.44;2104296;28;28262;-68
2023/08/11 01:06:46;;;;;;;3.90;2.10;;;;;;;-146.25;89.69;52102.59;2103461;28;20056;-68
2023/08/11 01:08:21;;;;;;;5.80;2.70;;;;;;;-146.25;90.46;52102.59;2096527;28;29075;-68
2023/08/11 01:09:37;;;;;;;4.13;2.90;;;;;;;-146.25;90.17;52122.88;2104116;28;20045;-68
2023/08/11 01:11:00;;;;;;;7.22;3.00;;;;;;;-146.25;90.20;52108.66;2101677;28;34411;-67
2023/08/11 01:12:19;;;;;;;5.43;2.92;;;;;;;-146.25;90.38;52100.56;2096371;28;20957;-68
2023/08/11 01:13:27;;;;;;;8.00;2.72;;;;;;;-146.25;90.25;52130.97;2095473;28;29668;-68
2023/08/11 01:15:14;;;;;;;3.58;2.55;;;;;;;-146.25;90.79;52122.88;2090482;28;27458;-68
2023/08/11 01:16:17;;;;;;;4.85;2.50;;;;;;;-146.25;90.25;52090.44;2096512;28;31663;-68
2023/08/11 01:17:20;;;;;;;4.30;2.80;;;;;;;-146.25;90.78;52112.72;2095915;28;35322;-68
2023/08/11 01:18:24;;;;;;;4.97;2.90;;;;;;;-146.25;91.32;52108.66;2095976;28;20045;-68
2023/08/11 01:19:38;;;;;;;7.82;2.90;;;;;;;-146.25;91.34;52094.47;2095273;28;30383;-68
2023/08/11 01:20:44;;;;;;;6.10;3.40;;;;;;;-146.25;90.95;52102.59;2095396;28;35466;-68
2023/08/11 01:21:48;;;;;;;5.03;2.42;;;;;;;-146.25;91.02;52155.31;2088766;28;28386;-68
2023/08/11 01:22:58;;;;;;;10.18;3.55;;;;;;;-146.25;91.10;52116.78;2086337;28;29129;-67
2023/08/11 01:24:00;;;;;;;8.13;3.33;;;;;;;-146.25;91.50;52098.53;2080731;28;28596;-68
2023/08/11 01:25:03;;;;;;;4.55;3.10;;;;;;;-146.25;91.54;52135.03;2088273;28;20875;-68
2023/08/11 01:26:05;;;;;;;5.00;3.28;;;;;;;-146.25;92.04;52149.22;2095095;28;33099;-68
2023/08/11 01:27:11;;;;;;;6.78;3.28;;;;;;;-146.25;92.23;52147.19;2087466;28;20156;-68
2023/08/11 01:28:12;;;;;;;6.90;3.33;;;;;;;-146.25;91.41;52108.66;2079423;28;31648;-67
2023/08/11 01:29:19;;;;;;;3.17;2.78;;;;;;;-146.25;91.28;52092.44;2087023;28;31402;-68
2023/08/11 01:30:27;;;;;;;6.05;3.38;;;;;;;-146.25;91.46;52163.41;2087912;28;20922;-68
2023/08/11 01:31:32;;;;;;;5.85;2.88;;;;;;;-146.25;91.28;52104.63;2088323;28;20076;-68
2023/08/11 01:32:34;;;;;;;5.20;2.95;;;;;;;-146.25;91.41;52128.94;2087447;28;20042;-69
2023/08/11 01:33:35;;;;;;;5.50;2.92;;;;;;;-146.25;91.55;52133.00;2078562;28;29435;-69
2023/08/11 01:34:39;;;;;;;9.40;3.40;;;;;;;-146.25;92.90;52120.84;2087573;28;20944;-69
2023/08/11 01:35:42;;;;;;;5.68;3.10;;;;;;;-146.25;92.62;52106.66;2087563;28;20183;-69
2023/08/11 01:36:44;;;;;;;5.53;3.03;;;;;;;-146.25;92.87;52116.78;2087637;28;21468;-69
2023/08/11 01:37:47;;;;;;;4.53;3.25;;;;;;;-146.25;92.26;52066.09;2079097;28;20042;-69
2023/08/11 01:38:51;;;;;;;6.00;3.30;;;;;;;-146.25;93.42;52082.31;2087773;28;29276;-69
2023/08/11 01:39:53;;;;;;;6.60;3.40;;;;;;;-146.25;92.94;52135.03;2087462;28;29086;-68
2023/08/11 01:40:57;;;;;;;8.18;3.40;;;;;;;-146.25;92.79;52096.50;2087710;28;27810;-68
2023/08/11 01:41:59;;;;;;;6.53;3.85;;;;;;;-146.25;92.48;52141.13;2087445;28;24806;-67
2023/08/11 01:43:05;;;;;;;5.32;3.03;;;;;;;-146.25;92.23;52104.63;2088142;28;28792;-68
2023/08/11 01:44:08;;;;;;;5.50;3.50;;;;;;;-146.25;92.15;52110.69;2078480;28;32184;-69
2023/08/11 01:45:12;;;;;;;4.43;3.28;;;;;;;-146.25;92.44;52114.75;2071850;28;33555;-68
2023/08/11 01:46:16;;;;;;;4.32;3.88;;;;;;;-146.25;92.46;52120.84;2086948;28;33326;-69
2023/08/11 01:47:19;;;;;;;5.53;3.88;;;;;;;-146.25;93.10;52116.78;2088346;28;20029;-67
2023/08/11 01:48:22;;;;;;;4.65;3.53;;;;;;;-146.25;92.61;52102.59;2086608;28;25511;-69
2023/08/11 01:49:28;;;;;;;10.90;3.83;;;;;;;-146.25;93.69;52124.91;2079395;28;30222;-68
2023/08/11 01:50:33;;;;;;;7.50;3.65;;;;;;;-146.25;93.79;52120.84;2087217;28;20147;-68
2023/08/11 01:51:35;;;;;;;9.23;4.30;;;;;;;-146.25;93.85;52114.75;2087190;28;34903;-68
2023/08/11 01:52:45;;;;;;;7.93;4.05;;;;;;;-146.25;93.25;52141.13;2080808;28;20049;-68
2023/08/11 01:53:48;;;;;;;7.10;4.13;;;;;;;-146.25;93.54;52161.38;2094631;28;20223;-68
2023/08/11 01:54:50;;;;;;;7.22;3.97;;;;;;;-146.25;93.53;52124.91;2080027;28;20053;-68
2023/08/11 01:55:53;;;;;;;7.35;4.00;;;;;;;-146.25;93.37;52070.16;2087861;28;20022;-68
2023/08/11 01:56:55;;;;;;;6.78;3.78;;;;;;;-146.25;93.13;52116.78;2095602;28;20122;-68
2023/08/11 01:57:58;;;;;;;6.60;3.95;;;;;;;-146.25;93.53;52084.34;2087732;28;20049;-68
2023/08/11 01:59:04;;;;;;;7.40;4.60;;;;;;;-146.25;93.77;52104.63;2086990;28;20910;-68
2023/08/11 02:00:13;;;;;;;8.00;4.82;;;;;;;-146.25;94.00;52080.28;2087347;28;20072;-68
2023/08/11 02:01:17;;;;;;;8.38;4.35;;;;;;;-146.25;94.37;52124.91;2087960;28;20052;-68
2023/08/11 02:02:19;;;;;;;8.27;4.78;;;;;;;-146.25;93.77;52070.16;2087973;28;29025;-68
2023/08/11 02:03:21;;;;;;;8.88;4.68;;;;;;;-146.25;94.01;52153.28;2087471;28;20081;-68
2023/08/11 02:04:23;;;;;;;10.05;5.03;;;;;;;-146.25;94.55;52133.00;2087206;28;30454;-68
2023/08/11 02:05:24;;;;;;;9.38;5.07;;;;;;;-146.25;94.22;52141.13;2087306;28;35972;-67
2023/08/11 02:06:27;;;;;;;7.55;4.18;;;;;;;-146.25;94.28;52114.75;2087505;28;20156;-68
2023/08/11 02:07:29;;;;;;;7.85;4.63;;;;;;;-146.25;94.40;52098.53;2087252;28;25508;-68
2023/08/11 02:08:31;;;;;;;10.90;5.13;;;;;;;-146.25;94.23;52118.81;2088081;28;27506;-68
2023/08/11 02:09:33;;;;;;;6.93;4.60;;;;;;;-146.25;94.45;52100.56;2087535;28;25717;-68
2023/08/11 02:10:36;;;;;;;9.93;4.78;;;;;;;-146.25;93.90;52122.88;2088083;28;20084;-68
2023/08/11 02:11:39;;;;;;;7.50;4.38;;;;;;;-146.25;93.90;52108.66;2087240;28;20053;-68
2023/08/11 02:12:41;;;;;;;5.78;4.70;;;;;;;-146.25;94.23;52141.13;2079024;28;20157;-68
2023/08/11 02:13:43;;;;;;;7.78;4.97;;;;;;;-146.25;94.81;52116.78;2079196;28;20049;-68
2023/08/11 02:14:45;;;;;;;7.53;4.90;;;;;;;-146.25;94.63;52141.13;2087120;28;20021;-68
2023/08/11 02:15:47;;;;;;;13.38;4.63;;;;;;;-146.25;94.33;52120.84;2088367;28;28395;-68
2023/08/11 02:16:49;;;;;;;10.52;5.20;;;;;;;-146.25;94.92;52128.94;2089459;28;20034;-68
2023/08/11 02:17:51;;;;;;;6.28;4.68;;;;;;;-146.25;94.64;52120.84;2088580;28;29145;-68
2023/08/11 02:18:54;;;;;;;6.65;5.00;;;;;;;-146.25;94.65;52110.69;2088891;28;20902;-68
2023/08/11 02:19:55;;;;;;;8.43;4.30;;;;;;;-146.25;94.77;52133.00;2088457;28;21199;-68
2023/08/11 02:20:57;;;;;;;6.82;4.55;;;;;;;-146.25;95.19;52139.09;2088287;28;36143;-68
2023/08/11 02:21:59;;;;;;;10.98;5.07;;;;;;;-146.25;95.68;52124.91;2088756;28;20993;-68
2023/08/11 02:23:03;;;;;;;7.53;4.28;;;;;;;-146.25;95.05;52114.75;2094176;28;31748;-68
2023/08/11 02:24:05;;;;;;;8.13;4.50;;;;;;;-146.25;95.21;52102.59;2097236;28;26560;-68
2023/08/11 02:25:10;;;;;;;10.15;4.40;;;;;;;-146.25;95.03;52143.13;2096338;28;29411;-68
2023/08/11 02:26:13;;;;;;;6.57;4.32;;;;;;;-146.25;95.35;52124.91;2089251;28;20806;-68
2023/08/11 02:27:14;;;;;;;7.43;4.70;;;;;;;-146.25;95.24;52122.88;2097298;28;20044;-68
2023/08/11 02:28:18;;;;;;;5.80;4.40;;;;;;;-146.25;95.10;52130.97;2097035;28;28895;-68
2023/08/11 02:29:22;;;;;;;8.15;4.85;;;;;;;-146.25;94.92;52128.94;2097540;28;27571;-68
2023/08/11 02:30:28;;;;;;;8.60;4.57;;;;;;;-146.25;95.04;52118.81;2097410;28;24316;-68
2023/08/11 02:31:33;;;;;;;5.60;4.65;;;;;;;-146.25;95.86;52092.44;2097143;28;26250;-68
2023/08/11 02:32:35;;;;;;;7.95;4.57;;;;;;;-146.25;95.92;52100.56;2096531;28;30406;-68
2023/08/11 02:33:36;;;;;;;7.85;4.65;;;;;;;-146.25;95.71;52135.03;2097031;28;29334;-67
2023/08/11 02:34:38;;;;;;;5.93;4.93;;;;;;;-146.25;95.80;52133.00;2104587;28;32880;-68
2023/08/11 02:35:40;;;;;;;8.68;5.10;;;;;;;-146.25;96.38;52100.56;2104931;28;31825;-68
2023/08/11 02:36:42;;;;;;;9.63;5.65;;;;;;;-146.25;96.16;52104.63;2097609;28;20037;-68
2023/08/11 02:37:44;;;;;;;8.73;5.10;;;;;;;-146.25;96.16;52124.91;2097177;28;32207;-68
2023/08/11 02:38:46;;;;;;;5.50;4.72;;;;;;;-146.25;95.48;52141.13;2096627;28;20126;-68
2023/08/11 02:39:48;;;;;;;7.00;5.03;;;;;;;-146.25;95.61;52155.31;2088096;28;27519;-68
2023/08/11 02:40:52;;;;;;;8.18;4.55;;;;;;;-146.25;95.69;52135.03;2096504;28;31287;-68
2023/08/11 02:41:55;;;;;;;6.47;4.47;;;;;;;-146.25;95.75;52100.56;2097589;28;20092;-68
2023/08/11 02:42:57;;;;;;;7.93;5.13;;;;;;;-146.25;95.50;52104.63;2097044;28;30076;-68
2023/08/11 02:44:02;;;;;;;9.45;4.65;;;;;;;-146.25;96.02;52169.50;2097580;28;20140;-68
2023/08/11 02:45:09;;;;;;;7.50;4.72;;;;;;;-146.25;96.21;52116.78;2097436;28;23975;-68
2023/08/11 02:46:12;;;;;;;7.82;4.43;;;;;;;-146.25;96.00;52133.00;2105749;28;20167;-68
2023/08/11 02:47:14;;;;;;;5.22;4.20;;;;;;;-146.25;95.64;52126.91;2105356;28;20110;-69
2023/08/11 02:48:16;;;;;;;5.30;3.97;;;;;;;-146.25;95.93;52122.88;2104344;28;32013;-69
2023/08/11 02:49:18;;;;;;;8.70;4.85;;;;;;;-146.25;95.78;52116.78;2096669;28;30799;-69
2023/08/11 02:50:19;;;;;;;7.50;4.53;;;;;;;-146.25;95.97;52130.97;2088287;28;25865;-68
2023/08/11 02:51:21;;;;;;;9.20;4.55;;;;;;;-146.25;96.43;52124.91;2097288;28;21049;-68
2023/08/11 02:52:23;;;;;;;13.55;5.47;;;;;;;-146.25;96.66;52135.03;2097139;28;20068;-68
2023/08/11 02:53:25;;;;;;;8.30;4.72;;;;;;;-146.25;97.25;52135.03;2096445;28;29312;-68
2023/08/11 02:54:30;;;;;;;5.72;4.78;;;;;;;-146.25;96.25;52153.28;2105069;28;20941;-68
2023/08/11 02:55:32;;;;;;;5.78;4.90;;;;;;;-146.25;96.26;52151.25;2096999;28;20045;-69
2023/08/11 02:56:36;;;;;;;7.18;5.00;;;;;;;-146.25;96.04;52108.66;2088140;28;22033;-67
2023/08/11 02:57:39;;;;;;;6.47;4.95;;;;;;;-146.25;96.15;52130.97;2097152;28;20025;-68
2023/08/11 02:58:42;;;;;;;7.80;5.13;;;;;;;-146.25;96.85;52141.13;2096780;28;28260;-68
2023/08/11 02:59:45;;;;;;;7.68;4.75;;;;;;;-146.25;96.60;52137.06;2096304;28;34733;-68
2023/08/11 03:00:49;;;;;;;8.40;5.22;;;;;;;-146.25;96.75;52110.69;2096233;28;25126;-68
2023/08/11 03:01:51;;;;;;;6.32;4.40;;;;;;;-146.25;96.31;52143.13;2096275;28;26609;-68
2023/08/11 03:02:53;;;;;;;5.07;4.05;;;;;;;-146.25;96.11;52100.56;2097186;28;20882;-68
2023/08/11 03:03:59;;;;;;;5.75;4.18;;;;;;;-146.25;96.23;52147.19;2097747;28;20472;-68
2023/08/11 03:05:07;;;;;;;6.43;4.95;;;;;;;-146.25;96.58;52118.81;2104860;28;20045;-67
2023/08/11 03:06:11;;;;;;;8.38;4.78;;;;;;;-146.25;96.84;52163.41;2104315;28;20053;-68
2023/08/11 03:07:12;;;;;;;6.97;4.38;;;;;;;-146.25;96.88;52122.88;2096774;28;20041;-69
2023/08/11 03:08:14;;;;;;;6.35;4.43;;;;;;;-146.25;96.86;52141.13;2097946;28;22853;-69
2023/08/11 03:09:18;;;;;;;7.28;4.57;;;;;;;-146.25;96.99;52133.00;2105043;28;20964;-68
2023/08/11 03:10:20;;;;;;;11.38;5.32;;;;;;;-146.25;97.30;52183.69;2104487;28;20091;-68
2023/08/11 03:11:22;;;;;;;9.90;5.38;;;;;;;-146.25;97.96;52092.44;2088176;28;20676;-68
2023/08/11 03:12:24;;;;;;;7.82;4.72;;;;;;;-146.25;97.25;52100.56;2088014;28;26852;-66
2023/08/11 03:13:28;;;;;;;12.50;5.38;;;;;;;-146.25;97.20;52133.00;2096449;28;22164;-68
2023/08/11 03:14:30;;;;;;;8.45;4.70;;;;;;;-146.25;97.04;52116.78;2105284;28;20100;-68
2023/08/11 03:15:33;;;;;;;10.77;5.68;;;;;;;-146.25;97.56;52122.88;2104405;28;33788;-68
2023/08/11 03:16:35;;;;;;;6.70;5.07;;;;;;;-146.25;96.97;52110.69;2088927;28;20911;-68
2023/08/11 03:17:40;;;;;;;8.10;5.13;;;;;;;-146.25;96.86;52122.88;2087958;28;31633;-68
2023/08/11 03:18:43;;;;;;;7.00;4.30;;;;;;;-146.25;96.94;52122.88;2088541;28;20533;-68
2023/08/11 03:19:45;;;;;;;7.53;5.05;;;;;;;-146.25;97.14;52124.91;2096359;28;20088;-68
2023/08/11 03:20:47;;;;;;;9.02;5.25;;;;;;;-146.25;97.39;52122.88;2096950;28;28809;-68
2023/08/11 03:21:49;;;;;;;7.32;5.65;;;;;;;-146.25;97.61;52084.34;2104711;28;20044;-67
2023/08/11 03:22:51;;;;;;;10.80;5.28;;;;;;;-146.25;97.88;52128.94;2104978;28;20185;-68
2023/08/11 03:23:56;;;;;;;7.20;4.90;;;;;;;-146.25;97.74;52124.91;2096673;28;20926;-67
2023/08/11 03:25:02;;;;;;;10.18;5.15;;;;;;;-146.25;97.64;52137.06;2087783;28;20117;-68
2023/08/11 03:26:04;;;;;;;6.07;5.32;;;;;;;-146.25;97.52;52135.03;2085425;28;20131;-68
2023/08/11 03:27:08;;;;;;;10.55;6.30;;;;;;;-146.25;97.79;52157.34;2087410;28;20046;-68
2023/08/11 03:28:10;;;;;;;8.93;5.78;;;;;;;-146.25;97.40;52141.13;2096391;28;20817;-68
2023/08/11 03:29:15;;;;;;;6.13;5.53;;;;;;;-146.25;97.75;52118.81;2104849;28;20040;-68
2023/08/11 03:30:17;;;;;;;7.22;5.53;;;;;;;-146.25;97.55;52137.06;2104652;28;20064;-68
2023/08/11 03:31:24;;;;;;;8.70;5.75;;;;;;;-146.25;97.62;52110.69;2105160;28;20814;-68
2023/08/11 03:32:26;;;;;;;6.57;4.72;;;;;;;-146.25;97.17;52120.84;2104713;28;20921;-68
2023/08/11 03:33:29;;;;;;;9.27;5.38;;;;;;;-146.25;98.11;52167.47;2105189;28;20491;-68
2023/08/11 03:34:38;;;;;;;7.63;4.88;;;;;;;-146.25;97.55;52141.13;2096487;28;20829;-68
2023/08/11 03:35:40;;;;;;;7.47;5.53;;;;;;;-146.25;97.94;52133.00;2096429;28;26484;-68
2023/08/11 03:36:44;;;;;;;10.57;5.47;;;;;;;-146.25;97.66;52133.00;2096374;28;28979;-68
2023/08/11 03:37:46;;;;;;;8.48;5.75;;;;;;;-146.25;98.19;52161.38;2104984;28;20130;-68
2023/08/11 03:38:48;;;;;;;10.30;5.80;;;;;;;-146.25;98.12;52149.22;2095839;28;20047;-68
2023/08/11 03:39:50;;;;;;;9.63;5.30;;;;;;;-146.25;97.92;52106.66;2088551;28;20038;-68
2023/08/11 03:40:52;;;;;;;6.13;5.25;;;;;;;-146.25;98.33;52137.06;2095670;28;20838;-68
2023/08/11 03:41:56;;;;;;;8.75;5.47;;;;;;;-146.25;97.96;52133.00;2088220;28;20042;-68
2023/08/11 03:42:57;;;;;;;6.60;4.80;;;;;;;-146.25;98.01;52137.06;2087607;28;23239;-69
2023/08/11 03:43:59;;;;;;;9.48;5.18;;;;;;;-146.25;98.52;52149.22;2096768;28;20033;-68
2023/08/11 03:45:02;;;;;;;9.30;5.57;;;;;;;-146.25;98.10;52122.88;2095961;28;20975;-68
2023/08/11 03:46:07;;;;;;;9.18;5.22;;;;;;;-146.25;98.18;52124.91;2088396;28;20760;-68
2023/08/11 03:47:11;;;;;;;9.57;5.60;;;;;;;-146.25;98.29;52106.66;2096313;28;20100;-68
2023/08/11 03:48:14;;;;;;;6.00;4.63;;;;;;;-146.25;98.77;52155.31;2104972;28;20184;-68
2023/08/11 03:49:17;;;;;;;8.35;5.72;;;;;;;-146.25;98.37;52141.13;2096854;28;20041;-68
2023/08/11 03:50:19;;;;;;;10.80;6.00;;;;;;;-146.25;98.26;52114.75;2096663;28;20179;-66
2023/08/11 03:51:26;;;;;;;7.32;5.57;;;;;;;-146.25;98.13;52130.97;2095655;28;24996;-67
2023/08/11 03:52:28;;;;;;;12.38;6.20;;;;;;;-146.25;98.85;52139.09;2096317;28;20863;-67
2023/08/11 03:53:33;;;;;;;8.02;6.20;;;;;;;-146.25;98.58;52124.91;2088744;28;21032;-68
2023/08/11 03:54:34;;;;;;;10.13;6.10;;;;;;;-146.25;98.88;52157.34;2088774;28;20050;-68
2023/08/11 03:55:49;;;;;;;8.93;6.38;;;;;;;-146.25;98.74;52126.91;2089390;28;20131;-68
2023/08/11 03:56:51;;;;;;;8.00;5.80;;;;;;;-146.25;98.50;52102.59;2088143;28;20112;-68
2023/08/11 03:57:54;;;;;;;7.68;5.47;;;;;;;-146.25;98.24;52133.00;2088077;28;20049;-68
2023/08/11 03:58:59;;;;;;;11.95;5.80;;;;;;;-146.25;98.80;52141.13;2088547;28;20988;-68
2023/08/11 04:00:02;;;;;;;10.75;6.10;;;;;;;-146.25;98.93;52173.56;2087842;28;20177;-68
2023/08/11 04:01:14;;;;;;;11.05;6.00;;;;;;;-146.25;98.69;52114.75;2095414;28;20776;-68
2023/08/11 04:02:18;;;;;;;12.50;6.30;;;;;;;-146.25;98.51;52139.09;2096402;28;20076;-68
2023/08/11 04:03:19;;;;;;;7.05;5.85;;;;;;;-146.25;98.68;52116.78;2087675;28;21756;-68
2023/08/11 04:04:21;;;;;;;8.55;5.22;;;;;;;-146.25;98.59;52124.91;2096061;28;20057;-68
2023/08/11 04:05:24;;;;;;;5.53;4.95;;;;;;;-146.25;98.78;52126.91;2096089;28;20033;-67
2023/08/11 04:06:32;;;;;;;10.95;5.25;;;;;;;-146.25;98.79;52145.16;2096084;28;29842;-68
2023/08/11 04:07:35;;;;;;;11.82;5.63;;;;;;;-146.25;98.55;52153.28;2097380;28;20087;-67
2023/08/11 04:08:41;;;;;;;8.80;6.07;;;;;;;-146.25;99.34;52149.22;2096499;28;29820;-67
2023/08/11 04:09:48;;;;;;;9.20;6.15;;;;;;;-146.25;99.22;52147.19;2097196;28;20878;-68
2023/08/11 04:10:50;;;;;;;7.65;5.20;;;;;;;-146.25;99.05;52120.84;2087500;28;34893;-70
2023/08/11 04:11:56;;;;;;;9.18;5.95;;;;;;;-146.25;99.37;52112.72;2097468;22;20391;-65
2023/08/11 04:12:58;;;;;;;9.55;6.13;;;;;;;-146.25;99.26;52122.88;2072561;28;29073;-65
2023/08/11 04:14:02;;;;;;;8.43;5.40;;;;;;;-146.25;99.31;52133.00;2071022;28;27622;-66
2023/08/11 04:15:05;;;;;;;7.70;5.93;;;;;;;-146.25;99.49;52173.56;2072038;28;30358;-66
2023/08/11 04:16:09;;;;;;;9.63;5.45;;;;;;;-146.25;99.95;52159.34;2071584;28;20193;-65
2023/08/11 04:17:13;;;;;;;7.88;5.57;;;;;;;-146.25;99.57;52137.06;2071926;28;20057;-65
2023/08/11 04:18:15;;;;;;;9.23;5.97;;;;;;;-146.25;99.53;52143.13;2071301;28;20149;-64
2023/08/11 04:19:17;;;;;;;11.60;5.93;;;;;;;-146.25;99.97;52141.13;2071550;28;20148;-64
2023/08/11 04:20:22;;;;;;;9.95;6.13;;;;;;;-146.25;99.98;52147.19;2063037;28;20043;-67
2023/08/11 04:21:24;;;;;;;10.88;5.75;;;;;;;-146.25;99.89;52149.22;2064397;28;20046;-65
2023/08/11 04:22:28;;;;;;;8.73;5.00;;;;;;;-146.25;99.64;52147.19;2079218;28;25316;-67
2023/08/11 04:23:40;;;;;;;14.85;6.13;;;;;;;-146.25;100.00;52153.28;2071769;28;20906;-66
2023/08/11 04:24:45;;;;;;;7.93;5.80;;;;;;;-146.25;99.98;52124.91;2063084;28;20047;-66
2023/08/11 04:25:47;;;;;;;9.00;5.97;;;;;;;-146.25;100.00;52128.94;2070634;28;20054;-68
2023/08/11 04:26:51;;;;;;;9.57;5.47;;;;;;;-146.25;100.00;52116.78;2055250;28;20055;-65
2023/08/11 04:27:55;;;;;;;8.75;5.88;;;;;;;-146.25;100.00;52120.84;2056635;28;20122;-66
2023/08/11 04:28:57;;;;;;;7.57;5.35;;;;;;;-146.25;99.99;52094.47;2071015;28;20839;-66
2023/08/11 04:30:00;;;;;;;6.97;5.75;;;;;;;-146.25;100.00;52118.81;2071679;28;20076;-66
2023/08/11 04:31:02;;;;;;;10.02;6.55;;;;;;;-146.25;100.00;52177.59;2071192;28;20045;-66
2023/08/11 04:32:06;;;;;;;9.13;6.00;;;;;;;-146.25;100.00;52169.50;2055187;28;20164;-67
2023/08/11 04:33:09;;;;;;;10.05;6.10;;;;;;;-146.25;100.00;52153.28;2048016;28;20170;-66
2023/08/11 04:34:13;;;;;;;7.53;5.72;;;;;;;-146.25;100.00;52141.13;2055333;28;20047;-66
2023/08/11 04:35:15;;;;;;;7.97;6.07;;;;;;;-146.25;100.00;52092.44;2063333;28;20089;-66
2023/08/11 04:36:18;;;;;;;5.38;4.57;;;;;;;-146.25;100.00;52173.56;2071575;28;20046;-65
2023/08/11 04:37:20;;;;;;;7.97;6.20;;;;;;;-146.25;100.00;52137.06;2063106;28;20152;-66
2023/08/11 04:38:22;;;;;;;11.95;6.80;;;;;;;-146.25;100.00;52126.91;2063670;28;20214;-66
2023/08/11 04:39:24;;;;;;;8.05;5.85;;;;;;;-146.25;100.00;52128.94;2063038;28;20050;-66
2023/08/11 04:40:26;;;;;;;9.00;6.32;;;;;;;-146.25;100.00;52171.53;2055080;28;20254;-66
2023/08/11 04:41:28;;;;;;;10.35;5.97;;;;;;;-146.25;100.00;52163.41;2054649;28;20047;-67
2023/08/11 04:42:29;;;;;;;6.55;5.60;;;;;;;-146.25;100.00;52165.44;2057489;28;22394;-68
2023/08/11 04:43:32;;;;;;;6.05;5.15;;;;;;;-146.25;100.00;52185.72;2055719;28;20055;-67
2023/08/11 04:44:35;;;;;;;8.05;5.55;;;;;;;-146.25;100.00;52124.91;2063454;28;20066;-67
2023/08/11 04:45:37;;;;;;;8.20;6.30;;;;;;;-146.25;100.00;52151.25;2062939;28;20043;-67
2023/08/11 04:46:41;;;;;;;8.45;5.97;;;;;;;-146.25;100.00;52143.13;2055374;28;20829;-67
2023/08/11 04:47:43;;;;;;;8.85;5.75;;;;;;;-146.25;100.00;52133.00;2062515;28;22279;-67
2023/08/11 04:48:48;;;;;;;8.82;6.28;;;;;;;-146.25;100.00;52139.09;2063035;28;20035;-67
2023/08/11 04:49:50;;;;;;;6.70;5.47;;;;;;;-146.25;100.00;52159.34;2063099;28;25405;-66
2023/08/11 04:50:52;;;;;;;7.82;5.53;;;;;;;-146.25;100.00;52143.13;2063298;28;20069;-67
2023/08/11 04:51:54;;;;;;;7.35;5.95;;;;;;;-146.25;100.00;52118.81;2055031;28;20051;-66